Time;durP1;ratioP1;P1;durP2;ratioP2;P2;SDS_P1;SDS_P2;PMS_P1;PMS_P2;Temp;Humidity;BMP_temperature;BMP_pressure;BME280_temperature;BME280_humidity;BME280_pressure;Samples;Min_cycle;Max_cycle;Signal;HPM_P1;HPM_P2
2022/11/29 00:01:37;;;;;;;40.40;29.70;;;;;;;2.32;69.96;100847.19;108197;1282;24310;-79
2022/11/29 00:04:06;;;;;;;37.10;29.10;;;;;;;2.29;70.09;100849.40;108391;1282;22401;-78
2022/11/29 00:06:37;;;;;;;42.80;29.40;;;;;;;2.30;70.06;100852.33;108155;1283;23018;-78
2022/11/29 00:09:19;;;;;;;36.20;29.80;;;;;;;2.31;70.20;100849.41;108168;1282;22078;-78
2022/11/29 00:14:47;;;;;;;37.00;29.90;;;;;;;2.29;70.33;100850.27;108230;1283;23614;-78
2022/11/29 00:17:34;;;;;;;38.90;30.00;;;;;;;2.24;70.35;100842.00;108141;1280;21933;-78
2022/11/29 00:20:05;;;;;;;37.80;29.30;;;;;;;2.28;70.37;100846.67;108197;1283;23632;-78
2022/11/29 00:22:38;;;;;;;37.20;30.30;;;;;;;2.27;70.29;100848.38;108163;1272;22260;-78
2022/11/29 00:25:25;;;;;;;39.10;28.80;;;;;;;2.25;70.29;100847.68;108157;1283;22012;-79
2022/11/29 00:27:57;;;;;;;38.50;29.90;;;;;;;2.25;70.42;100847.51;108313;1282;21942;-79
2022/11/29 00:30:35;;;;;;;41.30;30.00;;;;;;;2.24;70.36;100845.79;107889;1282;21946;-77
2022/11/29 00:33:14;;;;;;;38.40;30.80;;;;;;;2.22;70.45;100844.92;107662;1286;21953;-78
2022/11/29 00:35:51;;;;;;;40.60;32.30;;;;;;;2.23;70.47;100843.20;107556;1286;21938;-78
2022/11/29 00:38:29;;;;;;;39.20;30.80;;;;;;;2.22;70.37;100846.46;107873;1285;22325;-78
2022/11/29 00:41:12;;;;;;;36.40;29.40;;;;;;;2.17;70.46;100843.52;107822;1286;21944;-78
2022/11/29 00:44:01;;;;;;;37.70;30.00;;;;;;;2.10;70.50;100842.98;106797;1285;1368600;-78
2022/11/29 00:46:42;;;;;;;35.20;29.00;;;;;;;2.05;70.64;100838.66;107804;1275;23065;-78
2022/11/29 00:49:27;;;;;;;40.90;31.40;;;;;;;2.01;70.59;100840.86;107426;1289;21946;-77
2022/11/29 00:52:00;;;;;;;36.30;30.20;;;;;;;2.02;70.73;100836.06;107657;1286;21946;-78
2022/11/29 00:54:30;;;;;;;36.80;29.70;;;;;;;2.02;70.72;100835.03;107638;1286;21996;-78
2022/11/29 00:57:02;;;;;;;42.00;31.80;;;;;;;2.04;70.86;100830.74;107782;1282;21989;-78
2022/11/29 00:59:33;;;;;;;35.80;30.40;;;;;;;2.07;70.91;100831.45;107769;1286;21960;-79
2022/11/29 01:02:07;;;;;;;41.40;32.50;;;;;;;2.09;70.85;100826.66;107466;1289;23750;-80
2022/11/29 01:04:56;;;;;;;41.60;32.50;;;;;;;2.08;70.83;100827.34;107232;1289;21967;-78
2022/11/29 01:07:32;;;;;;;41.40;32.50;;;;;;;2.06;70.96;100826.30;107341;1283;21969;-77
2022/11/29 01:10:17;;;;;;;;;;;;;;;;;;;;;
2022/11/29 01:13:00;;;;;;;41.50;31.40;;;;;;;2.06;70.97;100826.30;107391;1289;22720;-77
2022/11/29 01:15:35;;;;;;;37.70;29.60;;;;;;;2.06;70.95;100831.28;107320;1289;21952;-77
2022/11/29 01:18:14;;;;;;;36.90;29.90;;;;;;;2.07;71.03;100828.71;107296;1289;23730;-77
2022/11/29 01:21:12;;;;;;;38.30;31.20;;;;;;;2.06;70.84;100832.66;107614;1286;24334;-78
2022/11/29 01:24:01;;;;;;;37.90;31.10;;;;;;;2.00;70.77;100833.66;107664;1288;21946;-77
2022/11/29 01:26:43;;;;;;;45.70;32.90;;;;;;;1.98;70.91;100832.61;107756;1288;21941;-78
2022/11/29 01:29:14;;;;;;;43.70;34.20;;;;;;;2.00;70.96;100832.96;107743;1286;21944;-78
2022/11/29 01:31:47;;;;;;;39.90;32.90;;;;;;;2.01;70.92;100831.77;107892;1282;23059;-78
2022/11/29 01:34:26;;;;;;;43.20;32.50;;;;;;;2.01;70.99;100833.31;107988;1283;23067;-79
2022/11/29 01:37:00;;;;;;;;;;;;;;;1.99;70.82;100829.87;107485;1288;21963;-79
2022/11/29 01:39:33;;;;;;;42.90;30.40;;;;;;;1.89;70.92;100827.41;107529;1286;21961;-78
2022/11/29 01:42:24;;;;;;;43.20;32.70;;;;;;;1.87;71.11;100830.49;107638;1286;23744;-77
2022/11/29 01:45:22;;;;;;;42.20;32.00;;;;;;;1.87;71.10;100827.23;107885;1283;21934;-78
2022/11/29 01:47:58;;;;;;;40.60;32.80;;;;;;;1.89;71.10;100826.56;107472;1286;23781;-78
2022/11/29 01:50:28;;;;;;;44.80;35.00;;;;;;;1.90;71.11;100826.40;107431;1288;21937;-78
2022/11/29 01:53:00;;;;;;;44.90;33.70;;;;;;;1.92;71.06;100825.55;107334;1291;21978;-77
2022/11/29 01:55:39;;;;;;;43.00;34.80;;;;;;;1.92;71.15;100829.31;107267;1288;21932;-76
2022/11/29 01:58:19;;;;;;;50.80;34.00;;;;;;;1.91;71.01;100823.98;107482;1288;22066;-77
2022/11/29 02:01:06;;;;;;;40.80;32.40;;;;;;;1.90;70.96;100823.82;107490;1287;23702;-77
2022/11/29 02:03:49;;;;;;;42.80;34.30;;;;;;;1.88;70.93;100826.55;107496;1287;21978;-76
2022/11/29 02:06:32;;;;;;;42.00;33.70;;;;;;;1.82;70.87;100823.77;107551;1288;21955;-77
2022/11/29 02:09:15;;;;;;;41.10;35.90;;;;;;;1.77;70.95;100824.95;107715;1287;21966;-77
2022/11/29 02:12:26;;;;;;;42.90;33.00;;;;;;;1.74;71.00;100824.58;107912;1282;23626;-76
2022/11/29 02:15:06;;;;;;;43.70;35.30;;;;;;;1.69;71.05;100823.52;107226;1289;22065;-77
2022/11/29 02:18:01;;;;;;;49.30;37.20;;;;;;;1.67;71.06;100825.73;107398;1291;21961;-78
2022/11/29 02:21:06;;;;;;;;;;;;;;;1.67;71.21;100825.06;107313;1290;22721;-78
2022/11/29 02:24:12;;;;;;;47.50;35.60;;;;;;;1.59;71.35;100820.89;107183;1295;23050;-77
2022/11/29 02:27:18;;;;;;;46.40;35.80;;;;;;;1.53;71.39;100820.52;106856;1293;23833;-77
2022/11/29 02:30:39;;;;;;;45.70;35.80;;;;;;;1.47;71.36;100825.09;106876;1295;21953;-77
2022/11/29 02:34:21;;;;;;;51.50;38.10;;;;;;;1.42;71.41;100828.48;107107;1291;23205;-78
2022/11/29 02:37:20;;;;;;;48.60;38.40;;;;;;;1.39;71.47;100828.80;107138;1291;22137;-78
2022/11/29 02:40:47;;;;;;;55.00;39.50;;;;;;;1.36;71.39;100830.85;107327;1291;21958;-78
2022/11/29 02:44:37;;;;;;;51.00;39.50;;;;;;;1.28;71.41;100834.39;107265;1294;23756;-79
2022/11/29 02:47:58;;;;;;;49.30;39.80;;;;;;;1.18;71.62;100834.99;107245;1294;21964;-77
2022/11/29 02:50:49;;;;;;;47.60;38.30;;;;;;;1.13;71.87;100835.29;107081;1291;22093;-78
2022/11/29 02:53:58;;;;;;;54.70;39.80;;;;;;;1.14;71.79;100836.67;107424;1291;22092;-78
2022/11/29 02:57:13;;;;;;;71.20;41.00;;;;;;;1.13;71.98;100841.30;107680;1291;22355;-78
2022/11/29 03:00:15;;;;;;;57.60;42.00;;;;;;;1.08;71.92;100836.45;107261;1291;22030;-78
2022/11/29 03:03:10;;;;;;;58.30;44.10;;;;;;;1.04;71.99;100840.52;107744;1286;21960;-77
2022/11/29 03:06:15;;;;;;;51.90;40.60;;;;;;;1.04;72.10;100843.44;107601;1291;22314;-78
2022/11/29 03:09:04;;;;;;;50.70;39.70;;;;;;;1.02;72.10;100842.73;107383;1291;22923;-78
2022/11/29 03:12:11;;;;;;;53.90;42.80;;;;;;;1.00;72.18;100847.34;107539;1288;23696;-78
2022/11/29 03:15:33;;;;;;;56.00;43.50;;;;;;;0.97;72.32;100847.16;107710;1287;23594;-78
2022/11/29 03:18:41;;;;;;;51.60;42.60;;;;;;;1.00;72.46;100854.20;107093;1294;23683;-78
2022/11/29 03:21:25;;;;;;;51.30;41.30;;;;;;;1.00;72.52;100859.19;106665;1297;21963;-79
2022/11/29 03:24:19;;;;;;;57.10;43.40;;;;;;;1.00;72.43;100860.55;106593;1298;23100;-78
2022/11/29 03:27:18;;;;;;;55.30;42.10;;;;;;;1.00;72.67;100859.86;106742;1293;21988;-77
2022/11/29 03:30:28;;;;;;;;;;;;;;;;;;;;;
2022/11/29 03:33:14;;;;;;;57.40;44.00;;;;;;;1.03;72.79;100866.40;105925;1304;21984;-79
2022/11/29 03:36:27;;;;;;;58.10;42.70;;;;;;;1.01;72.68;100865.86;105763;1306;22002;-78
2022/11/29 03:39:03;;;;;;;51.90;41.40;;;;;;;0.96;72.77;100868.05;105799;1305;21981;-76
2022/11/29 03:41:59;;;;;;;58.50;46.10;;;;;;;0.91;72.71;100870.75;105965;1302;25023;-77
2022/11/29 03:44:41;;;;;;;52.50;40.70;;;;;;;0.87;72.74;100869.84;106154;1303;23611;-78
2022/11/29 03:47:26;;;;;;;55.90;43.00;;;;;;;0.87;72.99;100872.58;105926;1303;23175;-77
2022/11/29 03:50:45;;;;;;;56.30;46.40;;;;;;;0.86;73.13;100873.42;106027;1303;21988;-78
2022/11/29 03:53:24;;;;;;;61.30;46.80;;;;;;;0.81;73.06;100873.72;106529;1299;21957;-77
2022/11/29 03:56:27;;;;;;;62.80;46.00;;;;;;;0.79;73.07;100879.86;106801;1294;23655;-77
2022/11/29 03:59:41;;;;;;;67.50;50.70;;;;;;;0.81;73.09;100881.44;107339;1294;22010;-78
2022/11/29 04:02:40;;;;;;;61.60;48.40;;;;;;;0.81;73.14;100883.65;107414;1291;21966;-78
2022/11/29 04:06:02;;;;;;;60.40;49.30;;;;;;;0.80;73.26;100886.58;106948;1297;22209;-77
2022/11/29 04:08:48;;;;;;;62.90;48.20;;;;;;;0.80;73.40;100894.44;106483;1300;21979;-78
2022/11/29 04:11:53;;;;;;;60.80;47.30;;;;;;;0.79;73.33;100890.33;107075;1291;21964;-79
2022/11/29 04:15:01;;;;;;;65.20;47.30;;;;;;;0.77;73.34;100889.61;107056;1289;22433;-78
2022/11/29 04:18:15;;;;;;;67.70;50.00;;;;;;;0.73;73.44;100889.90;107339;1294;23115;-77
2022/11/29 04:21:19;;;;;;;68.70;51.20;;;;;;;0.70;73.55;100894.16;107299;1292;22014;-78
2022/11/29 04:24:08;;;;;;;63.70;49.40;;;;;;;0.67;73.59;100896.70;107403;1285;23288;-78
2022/11/29 04:27:19;;;;;;;74.10;53.40;;;;;;;0.65;73.71;100893.25;107393;1288;23624;-77
2022/11/29 04:29:49;;;;;;;67.30;50.20;;;;;;;0.62;73.82;100897.48;107909;1291;22482;-77
2022/11/29 04:32:41;;;;;;;66.20;52.10;;;;;;;0.63;73.88;100901.09;107860;1291;21911;-78
2022/11/29 04:35:56;;;;;;;61.80;49.70;;;;;;;0.63;73.97;100902.13;107644;1291;21998;-77
2022/11/29 04:38:54;;;;;;;61.50;48.10;;;;;;;0.59;74.02;100898.48;107716;1291;22567;-77
2022/11/29 04:42:00;;;;;;;61.00;50.10;;;;;;;0.58;74.16;100898.81;107462;1281;23078;-78
2022/11/29 04:45:09;;;;;;;60.50;45.40;;;;;;;0.59;74.25;100910.31;107881;1282;24360;-76
2022/11/29 04:48:15;;;;;;;56.30;44.60;;;;;;;0.56;74.39;100907.52;108280;1281;23134;-77
2022/11/29 04:51:05;;;;;;;61.70;47.40;;;;;;;0.54;74.38;100909.91;108327;1282;21948;-78
2022/11/29 04:54:06;;;;;;;63.50;48.80;;;;;;;0.53;74.37;100909.73;108231;1283;23870;-77
2022/11/29 04:56:51;;;;;;;65.90;50.60;;;;;;;0.54;74.49;100913.15;108346;1282;23616;-78
2022/11/29 04:59:45;;;;;;;76.70;52.50;;;;;;;0.55;74.54;100914.88;108204;1282;21932;-77
2022/11/29 05:02:46;;;;;;;71.30;55.10;;;;;;;0.55;74.50;100919.50;108248;1283;21944;-78
2022/11/29 05:05:43;;;;;;;71.00;52.50;;;;;;;0.53;74.54;100920.34;108301;1282;22379;-77
2022/11/29 05:08:34;;;;;;;68.40;51.90;;;;;;;0.53;74.57;100923.95;108191;1282;22225;-77
2022/11/29 05:11:15;;;;;;;69.80;53.10;;;;;;;0.53;74.67;100924.27;108082;1283;21941;-76
2022/11/29 05:14:05;;;;;;;75.50;55.20;;;;;;;0.49;74.73;100927.31;108338;1283;21982;-78
2022/11/29 05:17:07;;;;;;;69.10;50.80;;;;;;;0.47;74.72;100930.04;108186;1280;24375;-78
2022/11/29 05:20:34;;;;;;;65.90;49.70;;;;;;;0.47;74.79;100933.29;108126;1283;22035;-78
2022/11/29 05:24:16;;;;;;;;;;;;;;;;;;;;;
2022/11/29 05:27:21;;;;;;;67.60;50.30;;;;;;;0.33;74.94;100933.27;107753;1287;23846;-78
2022/11/29 05:30:10;;;;;;;67.90;52.60;;;;;;;0.35;74.88;100939.45;106861;1297;22723;-77
2022/11/29 05:33:04;;;;;;;71.40;53.40;;;;;;;0.36;75.03;100943.25;106924;1286;21987;-77
2022/11/29 05:36:31;;;;;;;70.90;52.40;;;;;;;0.36;75.09;100941.38;106669;1297;21953;-77
2022/11/29 05:39:56;;;;;;;71.40;54.20;;;;;;;0.35;75.19;100942.38;107071;1297;22215;-77
2022/11/29 05:43:02;;;;;;;97.80;75.10;;;;;;;0.31;75.02;100946.61;106514;1297;22111;-77
2022/11/29 05:45:56;;;;;;;84.10;61.20;;;;;;;0.29;75.15;100948.27;106233;1300;21958;-77
2022/11/29 05:49:14;;;;;;;80.80;59.60;;;;;;;0.27;75.18;100950.30;106657;1298;22004;-77
2022/11/29 05:52:17;;;;;;;70.40;54.50;;;;;;;0.27;75.17;100955.79;106165;1300;23152;-78
2022/11/29 05:54:58;;;;;;;73.40;53.10;;;;;;;0.27;75.21;100961.96;106559;1294;21978;-77
2022/11/29 05:57:40;;;;;;;88.70;70.60;;;;;;;0.26;75.28;100963.30;106621;1297;21964;-78
2022/11/29 06:00:13;;;;;;;98.10;77.70;;;;;;;0.26;75.40;100964.66;106805;1292;23636;-78
2022/11/29 06:03:38;;;;;;;116.50;85.00;;;;;;;0.28;75.35;100967.27;106888;1293;22418;-80
2022/11/29 06:06:38;;;;;;;217.70;149.70;;;;;;;0.27;75.38;100973.23;106836;1297;23731;-77
2022/11/29 06:09:39;;;;;;;122.50;87.80;;;;;;;0.28;75.34;100977.71;106786;1288;21994;-78
2022/11/29 06:12:19;;;;;;;134.30;93.80;;;;;;;0.26;75.48;100973.76;106874;1292;21965;-78
2022/11/29 06:15:35;;;;;;;77.90;56.30;;;;;;;0.26;75.40;100983.34;107304;1291;21959;-76
2022/11/29 06:18:27;;;;;;;85.40;60.30;;;;;;;0.22;75.57;100984.30;107635;1282;22124;-76
2022/11/29 06:21:36;;;;;;;96.80;68.40;;;;;;;0.23;75.60;100987.92;107533;1289;21961;-78
2022/11/29 06:24:29;;;;;;;89.40;69.00;;;;;;;0.26;75.61;100994.12;107873;1289;21943;-76
2022/11/29 06:27:03;;;;;;;232.70;155.70;;;;;;;0.24;75.71;100997.52;108141;1280;23665;-80
2022/11/29 06:29:53;;;;;;;90.00;60.70;;;;;;;0.24;75.65;101000.60;108662;1277;22318;-80
2022/11/29 06:33:08;;;;;;;71.10;54.50;;;;;;;0.24;75.68;100998.88;108410;1273;21914;-79
2022/11/29 06:36:09;;;;;;;75.20;55.70;;;;;;;0.22;75.66;100997.13;107919;1288;23787;-79
2022/11/29 06:38:46;;;;;;;81.60;57.80;;;;;;;0.22;75.76;100999.53;108019;1289;21983;-80
2022/11/29 06:41:29;;;;;;;89.90;70.60;;;;;;;0.24;75.69;101004.20;107849;1288;22047;-78
2022/11/29 06:44:27;;;;;;;74.00;56.50;;;;;;;0.25;75.65;101005.92;107407;1288;23054;-80
2022/11/29 06:47:14;;;;;;;76.40;55.70;;;;;;;0.27;75.70;101011.09;107480;1280;21955;-78
2022/11/29 06:50:19;;;;;;;74.40;53.30;;;;;;;0.25;75.54;101012.41;107171;1290;22887;-79
2022/11/29 06:53:05;;;;;;;69.60;53.60;;;;;;;0.22;75.60;101013.56;107433;1290;21972;-78
2022/11/29 06:55:59;;;;;;;84.70;55.00;;;;;;;0.19;75.60;101014.40;107383;1289;23070;-76
2022/11/29 06:59:04;;;;;;;84.80;55.30;;;;;;;0.15;75.65;101011.77;107720;1291;23687;-77
2022/11/29 07:01:50;;;;;;;74.60;60.20;;;;;;;0.14;75.73;101013.64;107340;1291;22117;-76
2022/11/29 07:04:54;;;;;;;97.20;70.10;;;;;;;0.14;75.81;101014.48;107476;1291;23587;-79
2022/11/29 07:07:26;;;;;;;86.90;61.40;;;;;;;0.20;75.85;101019.88;107218;1293;21994;-82
2022/11/29 07:10:06;;;;;;;73.70;54.50;;;;;;;0.24;75.81;101028.33;106807;1300;22001;-82
2022/11/29 07:12:45;;;;;;;82.00;59.20;;;;;;;0.24;75.77;101023.52;106540;1297;23657;-80
2022/11/29 07:15:22;;;;;;;68.50;50.20;;;;;;;0.22;75.83;101020.09;106782;1297;24313;-79
2022/11/29 07:18:17;;;;;;;68.90;51.00;;;;;;;0.20;75.57;101020.91;106930;1294;21957;-80
2022/11/29 07:21:10;;;;;;;89.60;67.30;;;;;;;0.20;75.56;101024.83;106810;1300;22211;-79
2022/11/29 07:24:13;;;;;;;77.30;56.10;;;;;;;0.19;75.69;101026.03;106437;1300;22009;-77
2022/11/29 07:27:18;;;;;;;79.30;58.60;;;;;;;0.19;75.90;101028.94;106710;1297;23872;-77
2022/11/29 07:30:00;;;;;;;83.80;59.10;;;;;;;0.19;75.83;101027.39;107418;1291;22130;-84
2022/11/29 07:32:59;;;;;;;76.50;54.40;;;;;;;0.20;75.91;101027.59;108246;1286;23032;-80
2022/11/29 07:35:53;;;;;;;69.80;50.70;;;;;;;0.23;75.87;101031.58;108324;1285;23586;-83
2022/11/29 07:39:22;;;;;;;70.60;51.10;;;;;;;0.24;75.90;101034.99;108215;1283;22222;-80
2022/11/29 07:42:17;;;;;;;77.20;53.90;;;;;;;0.20;75.93;101036.15;108502;1280;23792;-80
2022/11/29 07:45:16;;;;;;;72.00;54.20;;;;;;;0.22;76.01;101036.67;108520;1280;21953;-80
2022/11/29 07:47:45;;;;;;;78.10;56.30;;;;;;;0.25;75.96;101046.66;108293;1283;23087;-81
2022/11/29 07:50:15;;;;;;;68.90;52.70;;;;;;;0.28;75.80;101048.59;108440;1280;21948;-81
2022/11/29 07:52:48;;;;;;;;;;;;;;;0.28;75.77;101043.11;108394;1280;21916;-79
2022/11/29 07:55:19;;;;;;;65.40;45.70;;;;;;;0.24;75.84;101049.20;108423;1280;21944;-79
2022/11/29 07:57:56;;;;;;;63.60;48.40;;;;;;;0.24;75.78;101046.28;108337;1283;21964;-78
2022/11/29 08:00:24;;;;;;;64.70;48.00;;;;;;;0.24;75.80;101050.06;107938;1288;22132;-82
2022/11/29 08:02:53;;;;;;;64.80;50.50;;;;;;;0.24;75.80;101047.16;108138;1288;22007;-81
2022/11/29 08:05:22;;;;;;;64.50;48.60;;;;;;;0.24;75.78;101044.41;107944;1288;22109;-81
2022/11/29 08:07:53;;;;;;;64.50;51.30;;;;;;;0.22;75.61;101045.41;108055;1288;22722;-81
2022/11/29 08:10:25;;;;;;;72.70;53.80;;;;;;;0.24;75.75;101041.52;107638;1294;21968;-81
2022/11/29 08:12:53;;;;;;;72.60;52.20;;;;;;;0.26;75.78;101044.45;107610;1291;23463;-81
2022/11/29 08:15:26;;;;;;;80.50;49.60;;;;;;;0.24;75.78;101045.45;107638;1291;22726;-81
2022/11/29 08:17:56;;;;;;;66.50;51.50;;;;;;;0.26;75.77;101044.45;107613;1289;23612;-81
2022/11/29 08:20:24;;;;;;;74.50;53.20;;;;;;;0.28;75.72;101046.02;107758;1289;21958;-82
2022/11/29 08:22:58;;;;;;;86.70;57.60;;;;;;;0.29;75.84;101045.35;107770;1288;21996;-81
2022/11/29 08:25:27;;;;;;;78.60;57.70;;;;;;;0.33;75.94;101047.80;107943;1289;21952;-82
2022/11/29 08:27:55;;;;;;;74.70;54.30;;;;;;;0.35;75.84;101049.90;107866;1282;22172;-82
2022/11/29 08:30:23;;;;;;;85.80;63.30;;;;;;;0.35;75.77;101049.39;108163;1282;23623;-82
2022/11/29 08:32:51;;;;;;;82.60;56.70;;;;;;;0.38;75.79;101047.04;108419;1277;21959;-83
2022/11/29 08:35:25;;;;;;;72.90;53.00;;;;;;;0.41;75.84;101049.30;108398;1283;22288;-80
2022/11/29 08:38:00;;;;;;;102.50;67.30;;;;;;;0.44;75.85;101053.12;108436;1283;22183;-83
2022/11/29 08:40:38;;;;;;;89.60;61.10;;;;;;;0.43;75.69;101057.05;108557;1283;21936;-79
2022/11/29 08:43:35;;;;;;;91.00;67.10;;;;;;;0.42;75.77;101058.58;107914;1288;24411;-80
2022/11/29 08:46:10;;;;;;;73.80;56.90;;;;;;;0.44;75.87;101059.44;107824;1288;23019;-80
2022/11/29 08:48:52;;;;;;;72.70;53.40;;;;;;;0.44;75.82;101057.55;107802;1288;23645;-80
2022/11/29 08:51:25;;;;;;;67.00;51.10;;;;;;;0.47;75.81;101060.52;107517;1291;22278;-80
2022/11/29 08:54:02;;;;;;;76.70;63.90;;;;;;;0.51;75.82;101058.69;107647;1291;23476;-80
2022/11/29 08:56:46;;;;;;;89.00;68.00;;;;;;;0.54;75.78;101061.14;107726;1282;21974;-80
2022/11/29 08:59:56;;;;;;;66.80;52.10;;;;;;;0.56;75.77;101061.16;107547;1282;22113;-81
2022/11/29 09:02:36;;;;;;;70.70;49.50;;;;;;;0.58;75.94;101062.05;107213;1285;21970;-81
2022/11/29 09:05:08;;;;;;;66.60;52.80;;;;;;;0.60;75.69;101058.66;107459;1282;21960;-81
2022/11/29 09:07:45;;;;;;;61.60;49.00;;;;;;;0.64;75.84;101061.27;107352;1291;21962;-80
2022/11/29 09:10:16;;;;;;;66.30;51.50;;;;;;;0.67;75.80;101055.49;107767;1288;23462;-82
2022/11/29 09:12:45;;;;;;;69.40;53.50;;;;;;;0.68;75.68;101055.17;107838;1288;21961;-80
2022/11/29 09:15:15;;;;;;;67.90;50.20;;;;;;;0.71;75.66;101056.77;108407;1275;21953;-81
2022/11/29 09:17:46;;;;;;;67.10;51.60;;;;;;;0.73;75.52;101053.19;108450;1276;21952;-81
2022/11/29 09:20:14;;;;;;;68.70;52.40;;;;;;;0.74;75.48;101056.11;108564;1283;21957;-80
2022/11/29 09:22:46;;;;;;;68.80;51.30;;;;;;;0.74;75.53;101057.48;108190;1273;24324;-79
2022/11/29 09:25:14;;;;;;;63.40;52.70;;;;;;;0.74;75.42;101056.79;108316;1274;23677;-80
2022/11/29 09:27:43;;;;;;;63.00;49.00;;;;;;;0.72;75.41;101059.16;107983;1286;21953;-80
2022/11/29 09:30:15;;;;;;;72.10;53.90;;;;;;;0.69;75.30;101060.49;108260;1286;21948;-79
2022/11/29 09:32:50;;;;;;;66.30;50.10;;;;;;;0.68;75.32;101063.56;108439;1286;21956;-79
2022/11/29 09:35:18;;;;;;;72.90;54.40;;;;;;;0.67;75.37;101059.95;107986;1286;21929;-79
2022/11/29 09:37:49;;;;;;;90.40;66.60;;;;;;;0.69;75.41;101063.59;107687;1286;23586;-79
2022/11/29 09:41:31;;;;;;;71.80;58.00;;;;;;;0.67;75.39;101058.59;108152;1278;21956;-79
2022/11/29 09:44:44;;;;;;;75.70;53.30;;;;;;;0.68;75.47;101056.36;107571;1292;22564;-79
2022/11/29 09:47:44;;;;;;;66.20;48.40;;;;;;;0.69;75.49;101059.80;107331;1297;24546;-80
2022/11/29 09:50:35;;;;;;;68.80;50.80;;;;;;;0.68;75.36;101056.70;107416;1294;21993;-80
2022/11/29 09:53:35;;;;;;;70.30;49.80;;;;;;;0.68;75.38;101057.41;106852;1300;22769;-79
2022/11/29 09:56:19;;;;;;;74.80;53.30;;;;;;;0.71;75.49;101054.36;106429;1295;21987;-79
2022/11/29 09:59:10;;;;;;;67.80;50.10;;;;;;;0.75;75.52;101054.75;105946;1304;22029;-79
2022/11/29 10:01:53;;;;;;;70.80;53.00;;;;;;;0.76;75.60;101055.64;105608;1301;23683;-79
2022/11/29 10:04:31;;;;;;;73.50;58.20;;;;;;;0.77;75.43;101053.92;105738;1315;22068;-79
2022/11/29 10:07:38;;;;;;;68.50;47.20;;;;;;;0.82;75.43;101053.30;105650;1315;21945;-81
2022/11/29 10:10:26;;;;;;;61.70;45.70;;;;;;;0.84;75.38;101053.84;105598;1307;21963;-78
2022/11/29 10:13:05;;;;;;;79.40;55.00;;;;;;;0.84;75.32;101056.58;105584;1310;21970;-78
2022/11/29 10:15:55;;;;;;;;;;;;;;;0.83;75.24;101055.20;105935;1298;23601;-79
2022/11/29 10:19:24;;;;;;;62.60;48.40;;;;;;;0.84;75.32;101058.98;106926;1291;21976;-79
2022/11/29 10:22:14;;;;;;;59.30;45.70;;;;;;;0.83;75.42;101056.41;107638;1287;21956;-78
2022/11/29 10:25:10;;;;;;;;;;;;;;;;;;;;;
2022/11/29 10:28:19;;;;;;;76.80;56.40;;;;;;;0.91;75.53;101062.16;107973;1289;22047;-80
2022/11/29 10:31:30;;;;;;;72.70;53.70;;;;;;;0.99;75.62;101059.70;107588;1285;21949;-79
2022/11/29 10:34:20;;;;;;;62.90;50.30;;;;;;;1.06;75.36;101061.50;107390;1288;22036;-79
2022/11/29 10:36:53;;;;;;;66.10;52.00;;;;;;;1.07;75.27;101056.02;107177;1297;22012;-77
2022/11/29 10:39:59;;;;;;;72.90;55.00;;;;;;;1.12;75.25;101059.00;106979;1289;21957;-79
2022/11/29 10:45:30;;;;;;;97.30;77.10;;;;;;;1.18;75.02;101058.90;107195;1285;23608;-77
2022/11/29 10:48:16;;;;;;;65.40;50.70;;;;;;;1.20;75.02;101064.58;107345;1289;22009;-79
2022/11/29 10:50:47;;;;;;;69.80;54.60;;;;;;;1.15;74.85;101065.73;107362;1296;21972;-79
2022/11/29 10:53:25;;;;;;;73.20;55.50;;;;;;;1.13;74.72;101057.64;107107;1297;21961;-79
2022/11/29 10:56:28;;;;;;;80.30;57.80;;;;;;;1.14;74.72;101059.35;107622;1291;22280;-80
2022/11/29 10:59:23;;;;;;;70.90;54.40;;;;;;;1.13;74.87;101057.13;107726;1291;22400;-79
2022/11/29 11:02:05;;;;;;;76.90;55.80;;;;;;;1.13;74.71;101057.13;107577;1292;21968;-81
2022/11/29 11:04:48;;;;;;;75.50;55.50;;;;;;;1.12;74.60;101055.73;107405;1291;23633;-79
2022/11/29 11:07:56;;;;;;;91.50;59.90;;;;;;;1.14;74.82;101056.97;107195;1285;21952;-79
2022/11/29 11:10:39;;;;;;;77.70;54.90;;;;;;;1.15;74.62;101054.92;107428;1293;21957;-79
2022/11/29 11:24:43;;;;;;;65.90;55.20;;;;;;;2.63;69.74;101052.06;106297;1301;549789;-80
2022/11/29 11:27:38;;;;;;;66.80;54.80;;;;;;;2.86;68.17;101058.78;104794;1287;4188232;-80
2022/11/29 11:30:26;;;;;;;67.30;53.70;;;;;;;2.32;69.31;101060.69;108040;1285;21954;-82
2022/11/29 11:33:35;;;;;;;67.00;49.80;;;;;;;1.99;70.16;101060.25;108571;1278;23712;-81
2022/11/29 11:36:42;;;;;;;66.80;53.40;;;;;;;1.74;70.90;101060.18;108538;1279;22101;-81
2022/11/29 11:39:33;;;;;;;69.10;54.50;;;;;;;1.62;71.46;101060.75;108543;1279;21924;-81
2022/11/29 11:42:37;;;;;;;65.50;52.60;;;;;;;1.57;71.69;101058.83;108494;1278;21985;-81
2022/11/29 11:45:38;;;;;;;75.50;57.60;;;;;;;1.49;72.08;101060.96;108740;1274;22429;-81
2022/11/29 11:48:22;;;;;;;89.50;65.70;;;;;;;1.46;72.32;101064.35;108723;1279;21965;-81
2022/11/29 11:50:58;;;;;;;84.50;64.90;;;;;;;1.47;72.37;101067.80;108975;1268;21938;-81
2022/11/29 11:53:38;;;;;;;77.00;61.50;;;;;;;1.46;72.52;101069.51;108923;1279;22421;-81
2022/11/29 11:56:25;;;;;;;76.60;60.80;;;;;;;1.45;72.63;101066.92;109086;1280;23627;-81
2022/11/29 11:59:25;;;;;;;72.80;55.60;;;;;;;1.42;72.71;101065.70;109020;1280;21922;-81
2022/11/29 12:02:02;;;;;;;70.60;53.30;;;;;;;1.40;72.75;101069.61;109103;1276;21959;-81
2022/11/29 12:04:39;;;;;;;72.70;56.20;;;;;;;1.40;72.84;101067.56;109204;1276;21986;-82
2022/11/29 12:07:42;;;;;;;;;;;;;;;1.41;72.86;101070.32;108942;1275;23041;-81
2022/11/29 12:10:38;;;;;;;77.70;53.60;;;;;;;1.34;73.22;101071.44;108979;1277;22362;-81
2022/11/29 12:13:40;;;;;;;78.20;58.00;;;;;;;1.37;73.35;101070.95;109055;1274;21917;-82
2022/11/29 12:16:36;;;;;;;78.30;54.80;;;;;;;1.44;73.27;101074.64;108933;1274;22110;-81
2022/11/29 12:19:38;;;;;;;78.50;60.00;;;;;;;1.43;73.19;101063.98;109077;1275;23030;-80
2022/11/29 12:22:48;;;;;;;91.50;71.60;;;;;;;1.43;73.21;101072.23;108690;1281;21950;-80
2022/11/29 12:26:03;;;;;;;73.90;55.80;;;;;;;1.47;73.30;101075.34;108723;1280;21924;-80
2022/11/29 12:28:37;;;;;;;70.10;55.10;;;;;;;1.49;73.38;101070.90;108387;1286;23653;-81
2022/11/29 12:31:45;;;;;;;74.30;56.50;;;;;;;1.51;73.21;101071.11;108201;1281;21983;-80
2022/11/29 12:35:15;;;;;;;73.00;55.80;;;;;;;1.50;73.21;101070.41;108174;1283;21961;-79
2022/11/29 12:38:00;;;;;;;73.50;54.70;;;;;;;1.50;73.28;101076.08;108435;1286;23082;-81
2022/11/29 12:40:49;;;;;;;71.90;53.30;;;;;;;1.49;73.21;101076.07;108446;1281;21971;-79
2022/11/29 12:44:04;;;;;;;70.90;57.40;;;;;;;1.49;73.31;101078.13;108380;1282;22026;-79
2022/11/29 12:47:21;;;;;;;74.80;55.60;;;;;;;1.46;73.38;101078.09;108395;1286;23708;-79
2022/11/29 12:50:29;;;;;;;68.70;52.80;;;;;;;1.43;73.44;101079.42;108432;1286;21959;-80
2022/11/29 12:53:30;;;;;;;82.80;62.80;;;;;;;1.43;73.50;101083.03;108202;1286;21949;-80
2022/11/29 12:56:40;;;;;;;83.10;59.90;;;;;;;1.42;73.54;101084.05;108502;1286;21936;-81
2022/11/29 13:00:26;;;;;;;65.50;52.60;;;;;;;1.42;73.64;101085.41;108494;1286;23690;-79
2022/11/29 13:04:12;;;;;;;70.10;54.40;;;;;;;1.37;73.65;101088.45;108765;1281;23688;-79
2022/11/29 13:07:52;;;;;;;76.80;57.80;;;;;;;1.34;73.66;101091.84;108990;1280;23689;-80
2022/11/29 13:10:32;;;;;;;78.50;58.80;;;;;;;1.33;73.80;101091.67;108332;1286;21982;-81
2022/11/29 13:13:41;;;;;;;68.90;55.40;;;;;;;1.33;73.82;101095.25;108198;1289;23609;-79
2022/11/29 13:17:18;;;;;;;67.50;57.00;;;;;;;1.35;73.83;101101.80;107705;1292;21971;-80
2022/11/29 13:20:08;;;;;;;85.00;63.90;;;;;;;1.29;73.94;101102.23;107075;1300;23681;-78
2022/11/29 13:23:00;;;;;;;74.80;60.60;;;;;;;1.33;73.91;101106.23;106497;1300;23617;-78